sensor_id;sensor_type;location;lat;lon;timestamp;P1;durP1;ratioP1;P2;durP2;ratioP2
25191;SDS011;13143;50.924;5.320;2023-05-13T00:02:20;12.05;;;8.52;;
25191;SDS011;13143;50.924;5.320;2023-05-13T00:04:46;11.75;;;8.80;;
25191;SDS011;13143;50.924;5.320;2023-05-13T00:07:12;9.07;;;8.20;;
25191;SDS011;13143;50.924;5.320;2023-05-13T00:09:39;10.98;;;8.50;;
25191;SDS011;13143;50.924;5.320;2023-05-13T00:12:08;13.30;;;9.15;;
25191;SDS011;13143;50.924;5.320;2023-05-13T00:14:37;16.67;;;9.43;;
25191;SDS011;13143;50.924;5.320;2023-05-13T00:17:06;15.07;;;9.30;;
25191;SDS011;13143;50.924;5.320;2023-05-13T00:19:39;13.07;;;8.80;;
25191;SDS011;13143;50.924;5.320;2023-05-13T00:22:05;12.35;;;9.07;;
25191;SDS011;13143;50.924;5.320;2023-05-13T00:24:32;12.57;;;9.48;;
25191;SDS011;13143;50.924;5.320;2023-05-13T00:27:04;10.63;;;8.80;;
25191;SDS011;13143;50.924;5.320;2023-05-13T00:29:31;10.63;;;8.53;;
25191;SDS011;13143;50.924;5.320;2023-05-13T00:32:03;14.45;;;9.10;;
25191;SDS011;13143;50.924;5.320;2023-05-13T00:34:30;15.40;;;9.13;;
25191;SDS011;13143;50.924;5.320;2023-05-13T00:36:57;16.50;;;9.48;;
25191;SDS011;13143;50.924;5.320;2023-05-13T00:39:27;10.80;;;9.15;;
25191;SDS011;13143;50.924;5.320;2023-05-13T00:41:53;12.50;;;8.80;;
25191;SDS011;13143;50.924;5.320;2023-05-13T00:44:20;11.80;;;9.32;;
25191;SDS011;13143;50.924;5.320;2023-05-13T00:46:46;16.42;;;8.93;;
25191;SDS011;13143;50.924;5.320;2023-05-13T00:49:14;12.80;;;9.20;;
25191;SDS011;13143;50.924;5.320;2023-05-13T00:51:43;13.02;;;9.75;;
25191;SDS011;13143;50.924;5.320;2023-05-13T00:54:10;13.85;;;9.80;;
25191;SDS011;13143;50.924;5.320;2023-05-13T00:56:37;14.18;;;9.27;;
25191;SDS011;13143;50.924;5.320;2023-05-13T00:59:03;11.15;;;9.25;;
25191;SDS011;13143;50.924;5.320;2023-05-13T01:07:24;11.93;;;8.82;;
25191;SDS011;13143;50.924;5.320;2023-05-13T01:10:21;13.52;;;8.85;;
25191;SDS011;13143;50.924;5.320;2023-05-13T01:13:16;13.40;;;9.38;;
25191;SDS011;13143;50.924;5.320;2023-05-13T01:16:02;12.18;;;8.40;;
25191;SDS011;13143;50.924;5.320;2023-05-13T01:18:48;11.88;;;8.93;;
25191;SDS011;13143;50.924;5.320;2023-05-13T01:21:23;18.05;;;8.65;;
25191;SDS011;13143;50.924;5.320;2023-05-13T01:23:53;11.05;;;8.90;;
25191;SDS011;13143;50.924;5.320;2023-05-13T01:26:20;10.57;;;9.43;;
25191;SDS011;13143;50.924;5.320;2023-05-13T01:28:48;12.68;;;9.10;;
25191;SDS011;13143;50.924;5.320;2023-05-13T01:31:15;12.43;;;9.57;;
25191;SDS011;13143;50.924;5.320;2023-05-13T01:33:42;14.82;;;9.80;;
25191;SDS011;13143;50.924;5.320;2023-05-13T01:36:09;12.25;;;8.57;;
25191;SDS011;13143;50.924;5.320;2023-05-13T01:38:35;13.38;;;9.10;;
25191;SDS011;13143;50.924;5.320;2023-05-13T01:41:03;13.10;;;8.68;;
25191;SDS011;13143;50.924;5.320;2023-05-13T01:43:31;11.13;;;9.20;;
25191;SDS011;13143;50.924;5.320;2023-05-13T01:46:00;12.35;;;8.38;;
25191;SDS011;13143;50.924;5.320;2023-05-13T01:48:27;12.30;;;9.30;;
25191;SDS011;13143;50.924;5.320;2023-05-13T01:50:53;13.30;;;8.68;;
25191;SDS011;13143;50.924;5.320;2023-05-13T01:53:20;13.15;;;9.27;;
25191;SDS011;13143;50.924;5.320;2023-05-13T01:55:47;10.38;;;8.63;;
25191;SDS011;13143;50.924;5.320;2023-05-13T01:58:13;15.27;;;9.90;;
25191;SDS011;13143;50.924;5.320;2023-05-13T02:00:42;13.10;;;9.65;;
25191;SDS011;13143;50.924;5.320;2023-05-13T02:03:08;12.50;;;10.05;;
25191;SDS011;13143;50.924;5.320;2023-05-13T02:05:35;16.95;;;12.25;;
25191;SDS011;13143;50.924;5.320;2023-05-13T02:08:01;17.17;;;13.05;;
25191;SDS011;13143;50.924;5.320;2023-05-13T02:10:28;13.98;;;11.85;;
25191;SDS011;13143;50.924;5.320;2023-05-13T02:12:54;14.57;;;11.18;;
25191;SDS011;13143;50.924;5.320;2023-05-13T02:15:20;15.85;;;12.35;;
25191;SDS011;13143;50.924;5.320;2023-05-13T02:17:47;16.80;;;12.50;;
25191;SDS011;13143;50.924;5.320;2023-05-13T02:20:15;14.27;;;10.45;;
25191;SDS011;13143;50.924;5.320;2023-05-13T02:22:42;17.15;;;12.73;;
25191;SDS011;13143;50.924;5.320;2023-05-13T02:25:08;18.02;;;14.05;;
25191;SDS011;13143;50.924;5.320;2023-05-13T02:27:35;18.63;;;14.43;;
25191;SDS011;13143;50.924;5.320;2023-05-13T02:30:05;16.88;;;12.98;;
25191;SDS011;13143;50.924;5.320;2023-05-13T02:32:31;19.20;;;14.02;;
25191;SDS011;13143;50.924;5.320;2023-05-13T02:34:58;17.45;;;13.55;;
25191;SDS011;13143;50.924;5.320;2023-05-13T02:37:25;17.38;;;12.75;;
25191;SDS011;13143;50.924;5.320;2023-05-13T02:39:52;18.08;;;13.30;;
25191;SDS011;13143;50.924;5.320;2023-05-13T02:42:18;14.07;;;10.82;;
25191;SDS011;13143;50.924;5.320;2023-05-13T02:44:45;15.40;;;10.07;;
25191;SDS011;13143;50.924;5.320;2023-05-13T02:47:13;13.52;;;10.95;;
25191;SDS011;13143;50.924;5.320;2023-05-13T02:49:39;14.10;;;10.75;;
25191;SDS011;13143;50.924;5.320;2023-05-13T02:52:06;11.13;;;9.73;;
25191;SDS011;13143;50.924;5.320;2023-05-13T02:54:32;14.88;;;12.02;;
25191;SDS011;13143;50.924;5.320;2023-05-13T02:56:58;14.20;;;11.88;;
25191;SDS011;13143;50.924;5.320;2023-05-13T02:59:36;13.20;;;11.55;;
25191;SDS011;13143;50.924;5.320;2023-05-13T03:02:05;21.05;;;13.40;;
25191;SDS011;13143;50.924;5.320;2023-05-13T03:04:31;18.60;;;13.10;;
25191;SDS011;13143;50.924;5.320;2023-05-13T03:06:57;19.45;;;14.10;;
25191;SDS011;13143;50.924;5.320;2023-05-13T03:09:24;18.83;;;14.30;;
25191;SDS011;13143;50.924;5.320;2023-05-13T03:11:50;19.00;;;14.05;;
25191;SDS011;13143;50.924;5.320;2023-05-13T03:14:17;17.25;;;13.40;;
25191;SDS011;13143;50.924;5.320;2023-05-13T03:16:44;17.98;;;14.10;;
25191;SDS011;13143;50.924;5.320;2023-05-13T03:19:10;17.50;;;13.70;;
25191;SDS011;13143;50.924;5.320;2023-05-13T03:21:39;15.65;;;13.57;;
25191;SDS011;13143;50.924;5.320;2023-05-13T03:24:06;17.63;;;13.70;;
25191;SDS011;13143;50.924;5.320;2023-05-13T03:26:32;20.13;;;14.65;;
25191;SDS011;13143;50.924;5.320;2023-05-13T03:28:59;20.08;;;13.85;;
25191;SDS011;13143;50.924;5.320;2023-05-13T03:31:26;19.33;;;14.57;;
25191;SDS011;13143;50.924;5.320;2023-05-13T03:33:53;19.20;;;13.98;;
25191;SDS011;13143;50.924;5.320;2023-05-13T03:36:19;16.48;;;14.20;;
25191;SDS011;13143;50.924;5.320;2023-05-13T03:38:45;16.80;;;14.45;;
25191;SDS011;13143;50.924;5.320;2023-05-13T03:41:11;16.92;;;13.30;;
25191;SDS011;13143;50.924;5.320;2023-05-13T03:43:42;18.60;;;15.00;;
25191;SDS011;13143;50.924;5.320;2023-05-13T03:46:09;15.48;;;13.27;;
25191;SDS011;13143;50.924;5.320;2023-05-13T03:48:36;16.48;;;13.65;;
25191;SDS011;13143;50.924;5.320;2023-05-13T03:51:05;16.02;;;13.60;;
25191;SDS011;13143;50.924;5.320;2023-05-13T03:53:32;16.95;;;12.82;;
25191;SDS011;13143;50.924;5.320;2023-05-13T03:55:58;18.33;;;14.68;;
25191;SDS011;13143;50.924;5.320;2023-05-13T03:58:27;17.33;;;14.52;;
25191;SDS011;13143;50.924;5.320;2023-05-13T04:00:54;17.65;;;13.60;;
25191;SDS011;13143;50.924;5.320;2023-05-13T04:03:23;15.65;;;13.27;;
25191;SDS011;13143;50.924;5.320;2023-05-13T04:05:52;18.75;;;14.68;;
25191;SDS011;13143;50.924;5.320;2023-05-13T04:08:18;15.75;;;13.52;;
25191;SDS011;13143;50.924;5.320;2023-05-13T04:10:48;17.40;;;14.25;;
25191;SDS011;13143;50.924;5.320;2023-05-13T04:13:14;16.30;;;13.70;;
25191;SDS011;13143;50.924;5.320;2023-05-13T04:15:40;21.45;;;14.07;;
25191;SDS011;13143;50.924;5.320;2023-05-13T04:18:07;22.00;;;15.43;;
25191;SDS011;13143;50.924;5.320;2023-05-13T04:20:33;20.08;;;13.65;;
25191;SDS011;13143;50.924;5.320;2023-05-13T04:23:02;16.05;;;13.85;;
25191;SDS011;13143;50.924;5.320;2023-05-13T04:25:28;18.33;;;14.43;;
25191;SDS011;13143;50.924;5.320;2023-05-13T04:27:54;20.00;;;14.00;;
25191;SDS011;13143;50.924;5.320;2023-05-13T04:30:26;17.40;;;13.85;;
25191;SDS011;13143;50.924;5.320;2023-05-13T04:32:55;16.92;;;14.35;;
25191;SDS011;13143;50.924;5.320;2023-05-13T04:35:22;21.17;;;13.80;;
25191;SDS011;13143;50.924;5.320;2023-05-13T04:37:48;20.15;;;14.27;;
25191;SDS011;13143;50.924;5.320;2023-05-13T04:40:15;17.38;;;12.85;;
25191;SDS011;13143;50.924;5.320;2023-05-13T04:42:41;18.15;;;14.27;;
25191;SDS011;13143;50.924;5.320;2023-05-13T04:45:08;16.63;;;13.20;;
25191;SDS011;13143;50.924;5.320;2023-05-13T04:47:34;14.60;;;12.75;;
25191;SDS011;13143;50.924;5.320;2023-05-13T04:50:02;16.02;;;12.93;;
25191;SDS011;13143;50.924;5.320;2023-05-13T04:52:28;17.63;;;13.27;;
25191;SDS011;13143;50.924;5.320;2023-05-13T04:54:55;14.23;;;12.73;;
25191;SDS011;13143;50.924;5.320;2023-05-13T04:57:21;18.63;;;13.05;;
25191;SDS011;13143;50.924;5.320;2023-05-13T04:59:53;15.80;;;12.50;;
25191;SDS011;13143;50.924;5.320;2023-05-13T05:02:22;14.90;;;12.85;;
25191;SDS011;13143;50.924;5.320;2023-05-13T05:04:49;16.58;;;12.30;;
25191;SDS011;13143;50.924;5.320;2023-05-13T05:07:15;16.13;;;12.38;;
25191;SDS011;13143;50.924;5.320;2023-05-13T05:09:41;16.52;;;12.38;;
25191;SDS011;13143;50.924;5.320;2023-05-13T05:12:08;20.48;;;14.00;;
25191;SDS011;13143;50.924;5.320;2023-05-13T05:14:34;19.58;;;13.88;;
25191;SDS011;13143;50.924;5.320;2023-05-13T05:17:02;17.60;;;13.10;;
25191;SDS011;13143;50.924;5.320;2023-05-13T05:19:29;17.20;;;13.85;;
25191;SDS011;13143;50.924;5.320;2023-05-13T05:21:55;17.13;;;13.60;;
25191;SDS011;13143;50.924;5.320;2023-05-13T05:24:22;21.25;;;13.88;;
25191;SDS011;13143;50.924;5.320;2023-05-13T05:26:52;17.02;;;14.15;;
25191;SDS011;13143;50.924;5.320;2023-05-13T05:29:18;18.75;;;13.75;;
25191;SDS011;13143;50.924;5.320;2023-05-13T05:31:45;20.05;;;14.65;;
25191;SDS011;13143;50.924;5.320;2023-05-13T05:34:11;22.00;;;14.48;;
25191;SDS011;13143;50.924;5.320;2023-05-13T05:36:38;17.77;;;14.20;;
25191;SDS011;13143;50.924;5.320;2023-05-13T05:39:04;20.42;;;14.13;;
25191;SDS011;13143;50.924;5.320;2023-05-13T05:41:31;18.20;;;14.65;;
25191;SDS011;13143;50.924;5.320;2023-05-13T05:43:58;16.08;;;14.38;;
25191;SDS011;13143;50.924;5.320;2023-05-13T05:46:27;20.48;;;15.32;;
25191;SDS011;13143;50.924;5.320;2023-05-13T05:48:53;27.13;;;16.08;;
25191;SDS011;13143;50.924;5.320;2023-05-13T05:51:20;22.38;;;14.55;;
25191;SDS011;13143;50.924;5.320;2023-05-13T05:53:46;23.25;;;15.55;;
25191;SDS011;13143;50.924;5.320;2023-05-13T05:56:13;18.52;;;15.27;;
25191;SDS011;13143;50.924;5.320;2023-05-13T05:58:39;26.65;;;16.63;;
25191;SDS011;13143;50.924;5.320;2023-05-13T06:01:06;19.63;;;15.05;;
25191;SDS011;13143;50.924;5.320;2023-05-13T06:03:35;20.58;;;14.98;;
25191;SDS011;13143;50.924;5.320;2023-05-13T06:06:01;23.88;;;14.27;;
25191;SDS011;13143;50.924;5.320;2023-05-13T06:08:28;17.63;;;15.32;;
25191;SDS011;13143;50.924;5.320;2023-05-13T06:10:56;24.60;;;14.75;;
25191;SDS011;13143;50.924;5.320;2023-05-13T06:13:23;19.95;;;14.73;;
25191;SDS011;13143;50.924;5.320;2023-05-13T06:15:52;19.00;;;14.50;;
25191;SDS011;13143;50.924;5.320;2023-05-13T06:18:18;18.45;;;14.95;;
25191;SDS011;13143;50.924;5.320;2023-05-13T06:20:45;22.35;;;15.57;;
25191;SDS011;13143;50.924;5.320;2023-05-13T06:23:12;23.95;;;15.80;;
25191;SDS011;13143;50.924;5.320;2023-05-13T06:25:39;22.70;;;14.90;;
25191;SDS011;13143;50.924;5.320;2023-05-13T06:28:11;18.48;;;14.52;;
25191;SDS011;13143;50.924;5.320;2023-05-13T06:30:37;23.00;;;14.95;;
25191;SDS011;13143;50.924;5.320;2023-05-13T06:33:08;20.08;;;16.17;;
25191;SDS011;13143;50.924;5.320;2023-05-13T06:35:38;20.50;;;15.18;;
25191;SDS011;13143;50.924;5.320;2023-05-13T06:38:07;21.88;;;15.45;;
25191;SDS011;13143;50.924;5.320;2023-05-13T06:40:34;19.65;;;15.40;;
25191;SDS011;13143;50.924;5.320;2023-05-13T06:43:00;19.13;;;14.90;;
25191;SDS011;13143;50.924;5.320;2023-05-13T06:45:27;21.10;;;15.25;;
25191;SDS011;13143;50.924;5.320;2023-05-13T06:47:53;21.30;;;14.60;;
25191;SDS011;13143;50.924;5.320;2023-05-13T06:50:23;22.92;;;15.30;;
25191;SDS011;13143;50.924;5.320;2023-05-13T06:52:49;17.75;;;14.35;;
25191;SDS011;13143;50.924;5.320;2023-05-13T06:55:16;19.83;;;14.27;;
25191;SDS011;13143;50.924;5.320;2023-05-13T06:57:43;19.50;;;14.32;;
25191;SDS011;13143;50.924;5.320;2023-05-13T07:00:11;22.92;;;14.25;;
25191;SDS011;13143;50.924;5.320;2023-05-13T07:02:39;19.67;;;14.25;;
25191;SDS011;13143;50.924;5.320;2023-05-13T07:05:06;17.98;;;13.95;;
25191;SDS011;13143;50.924;5.320;2023-05-13T07:07:34;19.10;;;13.73;;
25191;SDS011;13143;50.924;5.320;2023-05-13T07:10:03;18.55;;;13.80;;
25191;SDS011;13143;50.924;5.320;2023-05-13T07:12:30;15.80;;;13.50;;
25191;SDS011;13143;50.924;5.320;2023-05-13T07:17:33;17.02;;;13.93;;
25191;SDS011;13143;50.924;5.320;2023-05-13T07:20:02;21.40;;;14.27;;
25191;SDS011;13143;50.924;5.320;2023-05-13T07:22:31;23.00;;;13.63;;
25191;SDS011;13143;50.924;5.320;2023-05-13T07:25:04;18.20;;;13.27;;
25191;SDS011;13143;50.924;5.320;2023-05-13T07:27:40;15.27;;;12.90;;
25191;SDS011;13143;50.924;5.320;2023-05-13T07:30:09;20.75;;;13.02;;
25191;SDS011;13143;50.924;5.320;2023-05-13T07:32:37;18.95;;;12.82;;
25191;SDS011;13143;50.924;5.320;2023-05-13T07:35:04;21.58;;;13.30;;
25191;SDS011;13143;50.924;5.320;2023-05-13T07:37:35;17.52;;;13.13;;
25191;SDS011;13143;50.924;5.320;2023-05-13T07:40:05;18.73;;;13.02;;
25191;SDS011;13143;50.924;5.320;2023-05-13T07:42:32;23.45;;;12.20;;
25191;SDS011;13143;50.924;5.320;2023-05-13T07:44:58;22.73;;;12.48;;
25191;SDS011;13143;50.924;5.320;2023-05-13T07:47:25;18.65;;;12.02;;
25191;SDS011;13143;50.924;5.320;2023-05-13T07:49:53;18.90;;;12.35;;
25191;SDS011;13143;50.924;5.320;2023-05-13T07:52:29;16.10;;;11.52;;
25191;SDS011;13143;50.924;5.320;2023-05-13T07:54:56;19.17;;;12.45;;
25191;SDS011;13143;50.924;5.320;2023-05-13T07:57:30;16.85;;;12.05;;
25191;SDS011;13143;50.924;5.320;2023-05-13T08:00:06;18.40;;;12.63;;
25191;SDS011;13143;50.924;5.320;2023-05-13T08:02:42;16.25;;;11.32;;
25191;SDS011;13143;50.924;5.320;2023-05-13T08:05:16;17.95;;;11.98;;
25191;SDS011;13143;50.924;5.320;2023-05-13T08:07:51;20.40;;;11.50;;
25191;SDS011;13143;50.924;5.320;2023-05-13T08:10:20;21.38;;;10.65;;
25191;SDS011;13143;50.924;5.320;2023-05-13T08:12:50;17.80;;;12.02;;
25191;SDS011;13143;50.924;5.320;2023-05-13T08:15:22;17.05;;;10.95;;
25191;SDS011;13143;50.924;5.320;2023-05-13T08:17:52;16.80;;;11.02;;
25191;SDS011;13143;50.924;5.320;2023-05-13T08:20:19;16.65;;;11.25;;
25191;SDS011;13143;50.924;5.320;2023-05-13T08:22:47;25.77;;;11.57;;
25191;SDS011;13143;50.924;5.320;2023-05-13T08:25:14;14.65;;;10.95;;
25191;SDS011;13143;50.924;5.320;2023-05-13T08:27:40;15.27;;;11.35;;
25191;SDS011;13143;50.924;5.320;2023-05-13T08:30:07;14.30;;;10.93;;
25191;SDS011;13143;50.924;5.320;2023-05-13T08:32:34;17.25;;;10.50;;
25191;SDS011;13143;50.924;5.320;2023-05-13T08:35:00;15.35;;;11.35;;
25191;SDS011;13143;50.924;5.320;2023-05-13T08:37:27;24.55;;;11.32;;
25191;SDS011;13143;50.924;5.320;2023-05-13T08:39:53;20.20;;;10.75;;
25191;SDS011;13143;50.924;5.320;2023-05-13T08:42:21;15.52;;;9.77;;
25191;SDS011;13143;50.924;5.320;2023-05-13T08:44:49;17.15;;;10.23;;
25191;SDS011;13143;50.924;5.320;2023-05-13T08:50:14;14.00;;;10.85;;
25191;SDS011;13143;50.924;5.320;2023-05-13T08:52:42;18.55;;;10.85;;
25191;SDS011;13143;50.924;5.320;2023-05-13T08:55:09;15.57;;;10.20;;
25191;SDS011;13143;50.924;5.320;2023-05-13T08:57:35;13.48;;;9.98;;
25191;SDS011;13143;50.924;5.320;2023-05-13T09:00:16;11.80;;;9.38;;
25191;SDS011;13143;50.924;5.320;2023-05-13T09:02:45;12.15;;;9.18;;
25191;SDS011;13143;50.924;5.320;2023-05-13T09:05:13;15.05;;;9.18;;
25191;SDS011;13143;50.924;5.320;2023-05-13T09:07:50;15.10;;;8.68;;
25191;SDS011;13143;50.924;5.320;2023-05-13T09:10:17;15.73;;;9.18;;
25191;SDS011;13143;50.924;5.320;2023-05-13T09:12:46;19.30;;;9.32;;
25191;SDS011;13143;50.924;5.320;2023-05-13T09:15:16;16.75;;;9.07;;
25191;SDS011;13143;50.924;5.320;2023-05-13T09:17:44;14.48;;;9.30;;
25191;SDS011;13143;50.924;5.320;2023-05-13T09:20:14;13.93;;;8.45;;
25191;SDS011;13143;50.924;5.320;2023-05-13T09:22:49;13.82;;;8.85;;
25191;SDS011;13143;50.924;5.320;2023-05-13T09:25:18;15.30;;;9.00;;
25191;SDS011;13143;50.924;5.320;2023-05-13T09:27:46;118.78;;;10.20;;
25191;SDS011;13143;50.924;5.320;2023-05-13T09:30:20;18.02;;;8.82;;
25191;SDS011;13143;50.924;5.320;2023-05-13T09:33:04;11.35;;;8.60;;
25191;SDS011;13143;50.924;5.320;2023-05-13T09:35:42;14.73;;;8.52;;
25191;SDS011;13143;50.924;5.320;2023-05-13T09:40:54;14.35;;;8.30;;
25191;SDS011;13143;50.924;5.320;2023-05-13T09:43:22;21.50;;;7.72;;
25191;SDS011;13143;50.924;5.320;2023-05-13T09:46:00;12.65;;;7.35;;
25191;SDS011;13143;50.924;5.320;2023-05-13T09:48:33;15.75;;;8.05;;
25191;SDS011;13143;50.924;5.320;2023-05-13T09:51:08;12.23;;;7.90;;
25191;SDS011;13143;50.924;5.320;2023-05-13T09:53:40;24.35;;;9.10;;
25191;SDS011;13143;50.924;5.320;2023-05-13T09:56:07;14.25;;;8.48;;
25191;SDS011;13143;50.924;5.320;2023-05-13T09:58:38;12.60;;;7.97;;
25191;SDS011;13143;50.924;5.320;2023-05-13T10:01:07;13.65;;;7.75;;
25191;SDS011;13143;50.924;5.320;2023-05-13T10:03:34;17.33;;;9.50;;
25191;SDS011;13143;50.924;5.320;2023-05-13T10:06:02;12.60;;;8.30;;
25191;SDS011;13143;50.924;5.320;2023-05-13T10:08:32;20.25;;;8.68;;
25191;SDS011;13143;50.924;5.320;2023-05-13T10:11:00;14.88;;;8.20;;
25191;SDS011;13143;50.924;5.320;2023-05-13T10:13:31;18.58;;;8.95;;
25191;SDS011;13143;50.924;5.320;2023-05-13T10:15:59;11.02;;;7.43;;
25191;SDS011;13143;50.924;5.320;2023-05-13T10:18:25;21.30;;;7.60;;
25191;SDS011;13143;50.924;5.320;2023-05-13T10:20:53;9.52;;;7.30;;
25191;SDS011;13143;50.924;5.320;2023-05-13T10:23:21;16.02;;;7.13;;
25191;SDS011;13143;50.924;5.320;2023-05-13T10:25:53;16.13;;;7.25;;
25191;SDS011;13143;50.924;5.320;2023-05-13T10:28:24;26.20;;;7.88;;
25191;SDS011;13143;50.924;5.320;2023-05-13T10:30:53;9.63;;;7.32;;
25191;SDS011;13143;50.924;5.320;2023-05-13T10:33:20;15.63;;;7.85;;
25191;SDS011;13143;50.924;5.320;2023-05-13T10:35:51;10.38;;;7.20;;
25191;SDS011;13143;50.924;5.320;2023-05-13T10:41:16;14.57;;;7.35;;
25191;SDS011;13143;50.924;5.320;2023-05-13T10:43:57;15.52;;;7.53;;
25191;SDS011;13143;50.924;5.320;2023-05-13T10:46:24;10.98;;;7.20;;
25191;SDS011;13143;50.924;5.320;2023-05-13T10:48:55;9.68;;;7.25;;
25191;SDS011;13143;50.924;5.320;2023-05-13T10:51:24;10.27;;;6.47;;
25191;SDS011;13143;50.924;5.320;2023-05-13T10:53:52;10.43;;;6.60;;
25191;SDS011;13143;50.924;5.320;2023-05-13T10:56:26;10.82;;;6.45;;
25191;SDS011;13143;50.924;5.320;2023-05-13T10:59:03;11.07;;;6.47;;
25191;SDS011;13143;50.924;5.320;2023-05-13T11:01:40;8.95;;;6.07;;
25191;SDS011;13143;50.924;5.320;2023-05-13T11:04:18;15.98;;;6.30;;
25191;SDS011;13143;50.924;5.320;2023-05-13T11:06:46;10.50;;;5.78;;
25191;SDS011;13143;50.924;5.320;2023-05-13T11:09:14;10.50;;;6.60;;
25191;SDS011;13143;50.924;5.320;2023-05-13T11:12:21;10.55;;;5.97;;
25191;SDS011;13143;50.924;5.320;2023-05-13T11:14:46;10.13;;;6.07;;
25191;SDS011;13143;50.924;5.320;2023-05-13T11:17:28;11.15;;;6.30;;
25191;SDS011;13143;50.924;5.320;2023-05-13T11:19:55;8.65;;;6.35;;
25191;SDS011;13143;50.924;5.320;2023-05-13T11:22:22;11.23;;;6.30;;
25191;SDS011;13143;50.924;5.320;2023-05-13T11:25:07;8.95;;;5.60;;
25191;SDS011;13143;50.924;5.320;2023-05-13T11:27:41;12.30;;;6.35;;
25191;SDS011;13143;50.924;5.320;2023-05-13T11:30:31;14.13;;;6.35;;
25191;SDS011;13143;50.924;5.320;2023-05-13T11:32:58;12.68;;;6.20;;
25191;SDS011;13143;50.924;5.320;2023-05-13T11:35:51;10.80;;;6.93;;
25191;SDS011;13143;50.924;5.320;2023-05-13T11:38:22;14.23;;;6.63;;
25191;SDS011;13143;50.924;5.320;2023-05-13T11:40:54;13.50;;;6.57;;
25191;SDS011;13143;50.924;5.320;2023-05-13T11:43:42;14.98;;;7.10;;
25191;SDS011;13143;50.924;5.320;2023-05-13T11:46:10;11.45;;;5.63;;
25191;SDS011;13143;50.924;5.320;2023-05-13T11:48:43;10.75;;;5.88;;
25191;SDS011;13143;50.924;5.320;2023-05-13T11:51:10;9.98;;;6.18;;
25191;SDS011;13143;50.924;5.320;2023-05-13T11:53:42;11.82;;;5.43;;
25191;SDS011;13143;50.924;5.320;2023-05-13T11:56:11;11.57;;;5.65;;
25191;SDS011;13143;50.924;5.320;2023-05-13T11:58:38;7.05;;;4.57;;
25191;SDS011;13143;50.924;5.320;2023-05-13T12:01:04;10.27;;;5.20;;
25191;SDS011;13143;50.924;5.320;2023-05-13T12:03:30;11.52;;;5.00;;
25191;SDS011;13143;50.924;5.320;2023-05-13T12:06:00;10.48;;;5.25;;
25191;SDS011;13143;50.924;5.320;2023-05-13T12:08:27;8.85;;;5.03;;
25191;SDS011;13143;50.924;5.320;2023-05-13T12:10:54;11.15;;;5.13;;
25191;SDS011;13143;50.924;5.320;2023-05-13T12:13:27;6.90;;;4.65;;
25191;SDS011;13143;50.924;5.320;2023-05-13T12:16:00;7.45;;;5.00;;
25191;SDS011;13143;50.924;5.320;2023-05-13T12:18:29;6.40;;;4.40;;
25191;SDS011;13143;50.924;5.320;2023-05-13T12:20:58;8.68;;;4.63;;
25191;SDS011;13143;50.924;5.320;2023-05-13T12:23:24;7.53;;;4.45;;
25191;SDS011;13143;50.924;5.320;2023-05-13T12:25:53;7.75;;;4.55;;
25191;SDS011;13143;50.924;5.320;2023-05-13T12:28:21;10.40;;;4.88;;
25191;SDS011;13143;50.924;5.320;2023-05-13T12:30:48;7.85;;;4.03;;
25191;SDS011;13143;50.924;5.320;2023-05-13T12:33:20;9.13;;;4.70;;
25191;SDS011;13143;50.924;5.320;2023-05-13T12:35:49;10.75;;;4.60;;
25191;SDS011;13143;50.924;5.320;2023-05-13T12:38:21;8.57;;;4.18;;
25191;SDS011;13143;50.924;5.320;2023-05-13T12:40:51;7.90;;;5.00;;
25191;SDS011;13143;50.924;5.320;2023-05-13T12:43:23;11.07;;;4.93;;
25191;SDS011;13143;50.924;5.320;2023-05-13T12:45:52;11.48;;;5.07;;
25191;SDS011;13143;50.924;5.320;2023-05-13T12:48:21;10.20;;;4.53;;
25191;SDS011;13143;50.924;5.320;2023-05-13T12:50:49;8.32;;;4.70;;
25191;SDS011;13143;50.924;5.320;2023-05-13T12:53:16;9.23;;;4.95;;
25191;SDS011;13143;50.924;5.320;2023-05-13T12:55:42;9.30;;;4.65;;
25191;SDS011;13143;50.924;5.320;2023-05-13T12:58:11;7.45;;;4.15;;
25191;SDS011;13143;50.924;5.320;2023-05-13T13:00:44;7.80;;;4.03;;
25191;SDS011;13143;50.924;5.320;2023-05-13T13:03:32;11.38;;;4.10;;
25191;SDS011;13143;50.924;5.320;2023-05-13T13:05:57;7.20;;;4.40;;
25191;SDS011;13143;50.924;5.320;2023-05-13T13:08:26;12.25;;;4.60;;
25191;SDS011;13143;50.924;5.320;2023-05-13T13:10:53;7.15;;;4.45;;
25191;SDS011;13143;50.924;5.320;2023-05-13T13:13:29;9.70;;;4.22;;
25191;SDS011;13143;50.924;5.320;2023-05-13T13:15:57;5.88;;;4.07;;
25191;SDS011;13143;50.924;5.320;2023-05-13T13:18:35;7.32;;;4.45;;
25191;SDS011;13143;50.924;5.320;2023-05-13T13:21:08;7.80;;;4.28;;
25191;SDS011;13143;50.924;5.320;2023-05-13T13:23:35;10.07;;;4.20;;
25191;SDS011;13143;50.924;5.320;2023-05-13T13:26:04;6.75;;;4.03;;
25191;SDS011;13143;50.924;5.320;2023-05-13T13:28:31;7.82;;;4.20;;
25191;SDS011;13143;50.924;5.320;2023-05-13T13:30:57;8.40;;;4.70;;
25191;SDS011;13143;50.924;5.320;2023-05-13T13:33:24;9.75;;;4.90;;
25191;SDS011;13143;50.924;5.320;2023-05-13T13:35:57;5.43;;;4.13;;
25191;SDS011;13143;50.924;5.320;2023-05-13T13:38:35;9.63;;;4.75;;
25191;SDS011;13143;50.924;5.320;2023-05-13T13:41:01;7.05;;;4.03;;
25191;SDS011;13143;50.924;5.320;2023-05-13T13:43:46;9.45;;;4.43;;
25191;SDS011;13143;50.924;5.320;2023-05-13T13:46:32;6.85;;;4.55;;
25191;SDS011;13143;50.924;5.320;2023-05-13T13:48:59;10.85;;;5.07;;
25191;SDS011;13143;50.924;5.320;2023-05-13T13:51:28;9.93;;;4.60;;
25191;SDS011;13143;50.924;5.320;2023-05-13T13:54:09;10.88;;;4.93;;
25191;SDS011;13143;50.924;5.320;2023-05-13T13:56:42;7.55;;;4.57;;
25191;SDS011;13143;50.924;5.320;2023-05-13T13:59:11;6.70;;;4.38;;
25191;SDS011;13143;50.924;5.320;2023-05-13T14:02:05;10.13;;;4.20;;
25191;SDS011;13143;50.924;5.320;2023-05-13T14:04:31;9.32;;;4.82;;
25191;SDS011;13143;50.924;5.320;2023-05-13T14:07:16;9.55;;;4.88;;
25191;SDS011;13143;50.924;5.320;2023-05-13T14:09:49;5.18;;;3.97;;
25191;SDS011;13143;50.924;5.320;2023-05-13T14:12:18;8.63;;;3.75;;
25191;SDS011;13143;50.924;5.320;2023-05-13T14:14:54;13.90;;;4.70;;
25191;SDS011;13143;50.924;5.320;2023-05-13T14:17:35;5.43;;;4.22;;
25191;SDS011;13143;50.924;5.320;2023-05-13T14:20:05;8.25;;;4.82;;
25191;SDS011;13143;50.924;5.320;2023-05-13T14:22:31;6.22;;;4.45;;
25191;SDS011;13143;50.924;5.320;2023-05-13T14:24:58;47.60;;;5.30;;
25191;SDS011;13143;50.924;5.320;2023-05-13T14:27:24;7.45;;;4.07;;
25191;SDS011;13143;50.924;5.320;2023-05-13T14:29:50;5.95;;;4.38;;
25191;SDS011;13143;50.924;5.320;2023-05-13T14:32:17;5.60;;;4.38;;
25191;SDS011;13143;50.924;5.320;2023-05-13T14:34:52;10.85;;;4.15;;
25191;SDS011;13143;50.924;5.320;2023-05-13T14:37:18;14.77;;;4.85;;
25191;SDS011;13143;50.924;5.320;2023-05-13T14:39:45;7.43;;;4.38;;
25191;SDS011;13143;50.924;5.320;2023-05-13T14:42:29;15.20;;;4.53;;
25191;SDS011;13143;50.924;5.320;2023-05-13T14:45:01;13.98;;;4.85;;
25191;SDS011;13143;50.924;5.320;2023-05-13T14:47:37;9.70;;;4.40;;
25191;SDS011;13143;50.924;5.320;2023-05-13T14:50:07;8.73;;;4.60;;
25191;SDS011;13143;50.924;5.320;2023-05-13T14:52:36;8.52;;;4.50;;
25191;SDS011;13143;50.924;5.320;2023-05-13T14:55:10;8.10;;;4.50;;
25191;SDS011;13143;50.924;5.320;2023-05-13T14:57:39;7.70;;;4.03;;
25191;SDS011;13143;50.924;5.320;2023-05-13T15:00:08;7.55;;;4.80;;
25191;SDS011;13143;50.924;5.320;2023-05-13T15:02:36;8.40;;;4.55;;